Alexandria International Airport Alexandria US
ICAO: KAEX
IATA: AEX
Category: Medium
Scheduled Services: Yes

Elevation: 89 ft
TransAlt. 18000 ft.

Airport Communications:
POLK APP/DEP:132.05
ASOS:123.975
CLNC DEL:121.9
CTAF:127.35
GND:121.9
TWR:127.35

KAEX Zoom In..

If Map Doesn't Load, Click Here

Runways:

(A) RW 14 length 9352 ft width 150 ft
ILS 110.10 / hdg 141

(B) RW 18 length 7001 ft width 150 ft
---- / hdg 186

(C) RW 32 length 9352 ft width 150 ft
ILS 110.10 / hdg 321

(D) RW 36 length 7001 ft width 150 ft
---- / hdg 6

Location; KAEX
Day. 23 / Time. 07.53 Zulu
* Altimeter: 29.92
* Temperature: 23° c. 73.4°f.
* Wind from: 100° Speed 03 kn.
Dewpoint: 22° c.
Visibility: 10 Statute Miles.
Clouds: Clear (automated report).

KAEX 230753Z 10003KT 10SM CLR 23/22 A2992 RMK AO2 SLP134 T02330222


Wind From 100°
Speed 03 kn.

 
 
jpsmedia.com for Web Design worldairports.se 2018   terms of use